sensor_id;sensor_type;location;lat;lon;timestamp;P1;durP1;ratioP1;P2;durP2;ratioP2
49900;SDS011;35789;48.414;12.768;2023-05-10T00:00:00;6.4;;;3.0;;
49900;SDS011;35789;48.414;12.768;2023-05-10T00:05:00;5.7;;;3.2;;
49900;SDS011;35789;48.414;12.768;2023-05-10T00:10:00;5.7;;;3.2;;
49900;SDS011;35789;48.414;12.768;2023-05-10T00:15:00;5.7;;;3.2;;
49900;SDS011;35789;48.414;12.768;2023-05-10T00:20:00;5.7;;;3.2;;
49900;SDS011;35789;48.414;12.768;2023-05-10T00:25:00;5.7;;;3.2;;
49900;SDS011;35789;48.414;12.768;2023-05-10T00:30:00;5.7;;;3.2;;
49900;SDS011;35789;48.414;12.768;2023-05-10T00:35:00;6.9;;;3.8;;
49900;SDS011;35789;48.414;12.768;2023-05-10T00:40:00;6.9;;;3.8;;
49900;SDS011;35789;48.414;12.768;2023-05-10T00:45:00;6.9;;;3.8;;
49900;SDS011;35789;48.414;12.768;2023-05-10T00:50:00;6.9;;;3.8;;
49900;SDS011;35789;48.414;12.768;2023-05-10T00:55:01;6.9;;;3.8;;
49900;SDS011;35789;48.414;12.768;2023-05-10T01:00:01;6.5;;;3.2;;
49900;SDS011;35789;48.414;12.768;2023-05-10T01:05:01;6.5;;;3.2;;
49900;SDS011;35789;48.414;12.768;2023-05-10T01:10:00;6.5;;;3.2;;
49900;SDS011;35789;48.414;12.768;2023-05-10T01:15:00;6.5;;;3.2;;
49900;SDS011;35789;48.414;12.768;2023-05-10T01:20:00;6.5;;;3.2;;
49900;SDS011;35789;48.414;12.768;2023-05-10T01:25:15;6.5;;;3.2;;
49900;SDS011;35789;48.414;12.768;2023-05-10T01:30:08;6.4;;;3.4;;
49900;SDS011;35789;48.414;12.768;2023-05-10T01:35:03;6.4;;;3.4;;
49900;SDS011;35789;48.414;12.768;2023-05-10T01:40:09;6.4;;;3.4;;
49900;SDS011;35789;48.414;12.768;2023-05-10T01:45:08;6.4;;;3.4;;
49900;SDS011;35789;48.414;12.768;2023-05-10T01:50:03;6.4;;;3.4;;
49900;SDS011;35789;48.414;12.768;2023-05-10T01:55:02;6.4;;;3.4;;
49900;SDS011;35789;48.414;12.768;2023-05-10T02:00:02;6.7;;;3.5;;
49900;SDS011;35789;48.414;12.768;2023-05-10T02:05:00;6.7;;;3.5;;
49900;SDS011;35789;48.414;12.768;2023-05-10T02:10:01;6.7;;;3.5;;
49900;SDS011;35789;48.414;12.768;2023-05-10T02:15:03;6.7;;;3.5;;
49900;SDS011;35789;48.414;12.768;2023-05-10T02:20:01;6.7;;;3.5;;
49900;SDS011;35789;48.414;12.768;2023-05-10T02:25:00;6.7;;;3.5;;
49900;SDS011;35789;48.414;12.768;2023-05-10T02:30:01;8.1;;;4.2;;
49900;SDS011;35789;48.414;12.768;2023-05-10T02:35:01;8.1;;;4.2;;
49900;SDS011;35789;48.414;12.768;2023-05-10T02:40:01;8.1;;;4.2;;
49900;SDS011;35789;48.414;12.768;2023-05-10T02:45:02;8.1;;;4.2;;
49900;SDS011;35789;48.414;12.768;2023-05-10T02:50:00;8.1;;;4.2;;
49900;SDS011;35789;48.414;12.768;2023-05-10T02:55:01;8.1;;;4.2;;
49900;SDS011;35789;48.414;12.768;2023-05-10T03:00:00;8.9;;;4.6;;
49900;SDS011;35789;48.414;12.768;2023-05-10T03:05:00;8.9;;;4.6;;
49900;SDS011;35789;48.414;12.768;2023-05-10T03:10:01;8.9;;;4.6;;
49900;SDS011;35789;48.414;12.768;2023-05-10T03:15:04;8.9;;;4.6;;
49900;SDS011;35789;48.414;12.768;2023-05-10T03:20:04;8.9;;;4.6;;
49900;SDS011;35789;48.414;12.768;2023-05-10T03:25:05;8.9;;;4.6;;
49900;SDS011;35789;48.414;12.768;2023-05-10T03:30:01;8.8;;;5.0;;
49900;SDS011;35789;48.414;12.768;2023-05-10T03:35:00;8.8;;;5.0;;
49900;SDS011;35789;48.414;12.768;2023-05-10T03:40:00;8.8;;;5.0;;
49900;SDS011;35789;48.414;12.768;2023-05-10T03:45:00;8.8;;;5.0;;
49900;SDS011;35789;48.414;12.768;2023-05-10T03:50:00;8.8;;;5.0;;
49900;SDS011;35789;48.414;12.768;2023-05-10T03:55:00;8.8;;;5.0;;
49900;SDS011;35789;48.414;12.768;2023-05-10T04:00:00;10.4;;;5.1;;
49900;SDS011;35789;48.414;12.768;2023-05-10T04:05:00;10.4;;;5.1;;
49900;SDS011;35789;48.414;12.768;2023-05-10T04:10:00;10.4;;;5.1;;
49900;SDS011;35789;48.414;12.768;2023-05-10T04:15:00;10.4;;;5.1;;
49900;SDS011;35789;48.414;12.768;2023-05-10T04:20:00;10.4;;;5.1;;
49900;SDS011;35789;48.414;12.768;2023-05-10T04:25:00;10.4;;;5.1;;
49900;SDS011;35789;48.414;12.768;2023-05-10T04:30:01;5.3;;;2.8;;
49900;SDS011;35789;48.414;12.768;2023-05-10T04:35:00;5.3;;;2.8;;
49900;SDS011;35789;48.414;12.768;2023-05-10T04:40:00;5.3;;;2.8;;
49900;SDS011;35789;48.414;12.768;2023-05-10T04:45:00;5.3;;;2.8;;
49900;SDS011;35789;48.414;12.768;2023-05-10T04:50:00;5.3;;;2.8;;
49900;SDS011;35789;48.414;12.768;2023-05-10T04:55:00;5.3;;;2.8;;
49900;SDS011;35789;48.414;12.768;2023-05-10T05:00:00;25.9;;;14.4;;
49900;SDS011;35789;48.414;12.768;2023-05-10T05:05:00;25.9;;;14.4;;
49900;SDS011;35789;48.414;12.768;2023-05-10T05:10:00;25.9;;;14.4;;
49900;SDS011;35789;48.414;12.768;2023-05-10T05:15:00;25.9;;;14.4;;
49900;SDS011;35789;48.414;12.768;2023-05-10T05:20:00;25.9;;;14.4;;
49900;SDS011;35789;48.414;12.768;2023-05-10T05:25:00;25.9;;;14.4;;
49900;SDS011;35789;48.414;12.768;2023-05-10T05:30:00;5.7;;;2.2;;
49900;SDS011;35789;48.414;12.768;2023-05-10T05:35:00;5.7;;;2.2;;
49900;SDS011;35789;48.414;12.768;2023-05-10T05:40:00;5.7;;;2.2;;
49900;SDS011;35789;48.414;12.768;2023-05-10T05:45:00;5.7;;;2.2;;
49900;SDS011;35789;48.414;12.768;2023-05-10T05:50:00;5.7;;;2.2;;
49900;SDS011;35789;48.414;12.768;2023-05-10T05:55:00;5.7;;;2.2;;
49900;SDS011;35789;48.414;12.768;2023-05-10T06:00:00;3.3;;;1.2;;
49900;SDS011;35789;48.414;12.768;2023-05-10T06:05:00;3.3;;;1.2;;
49900;SDS011;35789;48.414;12.768;2023-05-10T06:10:00;3.3;;;1.2;;
49900;SDS011;35789;48.414;12.768;2023-05-10T06:15:00;3.3;;;1.2;;
49900;SDS011;35789;48.414;12.768;2023-05-10T06:20:00;3.3;;;1.2;;
49900;SDS011;35789;48.414;12.768;2023-05-10T06:25:00;3.3;;;1.2;;
49900;SDS011;35789;48.414;12.768;2023-05-10T06:30:00;3.8;;;1.4;;
49900;SDS011;35789;48.414;12.768;2023-05-10T06:35:00;3.8;;;1.4;;
49900;SDS011;35789;48.414;12.768;2023-05-10T06:40:00;3.8;;;1.4;;
49900;SDS011;35789;48.414;12.768;2023-05-10T06:45:00;3.8;;;1.4;;
49900;SDS011;35789;48.414;12.768;2023-05-10T06:50:00;3.8;;;1.4;;
49900;SDS011;35789;48.414;12.768;2023-05-10T06:55:01;3.8;;;1.4;;
49900;SDS011;35789;48.414;12.768;2023-05-10T07:00:01;3.1;;;1.0;;
49900;SDS011;35789;48.414;12.768;2023-05-10T07:05:00;3.1;;;1.0;;
49900;SDS011;35789;48.414;12.768;2023-05-10T07:10:00;3.1;;;1.0;;
49900;SDS011;35789;48.414;12.768;2023-05-10T07:15:00;3.1;;;1.0;;
49900;SDS011;35789;48.414;12.768;2023-05-10T07:20:00;3.1;;;1.0;;
49900;SDS011;35789;48.414;12.768;2023-05-10T07:25:00;3.1;;;1.0;;
49900;SDS011;35789;48.414;12.768;2023-05-10T07:30:00;3.3;;;0.8;;
49900;SDS011;35789;48.414;12.768;2023-05-10T07:35:00;3.3;;;0.8;;
49900;SDS011;35789;48.414;12.768;2023-05-10T07:40:00;3.3;;;0.8;;
49900;SDS011;35789;48.414;12.768;2023-05-10T07:45:00;3.3;;;0.8;;
49900;SDS011;35789;48.414;12.768;2023-05-10T07:50:00;3.3;;;0.8;;
49900;SDS011;35789;48.414;12.768;2023-05-10T07:55:00;3.3;;;0.8;;
49900;SDS011;35789;48.414;12.768;2023-05-10T08:00:00;5.8;;;1.1;;
49900;SDS011;35789;48.414;12.768;2023-05-10T08:05:00;5.8;;;1.1;;
49900;SDS011;35789;48.414;12.768;2023-05-10T08:10:00;5.8;;;1.1;;
49900;SDS011;35789;48.414;12.768;2023-05-10T08:15:00;5.8;;;1.1;;
49900;SDS011;35789;48.414;12.768;2023-05-10T08:20:00;5.8;;;1.1;;
49900;SDS011;35789;48.414;12.768;2023-05-10T08:25:00;5.8;;;1.1;;
49900;SDS011;35789;48.414;12.768;2023-05-10T08:30:00;3.1;;;1.2;;
49900;SDS011;35789;48.414;12.768;2023-05-10T08:35:00;3.1;;;1.2;;
49900;SDS011;35789;48.414;12.768;2023-05-10T08:40:00;3.1;;;1.2;;
49900;SDS011;35789;48.414;12.768;2023-05-10T08:45:01;3.1;;;1.2;;
49900;SDS011;35789;48.414;12.768;2023-05-10T08:50:02;3.1;;;1.2;;
49900;SDS011;35789;48.414;12.768;2023-05-10T08:55:00;3.1;;;1.2;;
49900;SDS011;35789;48.414;12.768;2023-05-10T09:00:00;4.3;;;1.6;;
49900;SDS011;35789;48.414;12.768;2023-05-10T09:05:00;4.3;;;1.6;;
49900;SDS011;35789;48.414;12.768;2023-05-10T09:10:00;4.3;;;1.6;;
49900;SDS011;35789;48.414;12.768;2023-05-10T09:15:01;4.3;;;1.6;;
49900;SDS011;35789;48.414;12.768;2023-05-10T09:20:01;4.3;;;1.6;;
49900;SDS011;35789;48.414;12.768;2023-05-10T09:25:04;4.3;;;1.6;;
49900;SDS011;35789;48.414;12.768;2023-05-10T09:30:00;4.3;;;1.5;;
49900;SDS011;35789;48.414;12.768;2023-05-10T09:35:05;4.3;;;1.5;;
49900;SDS011;35789;48.414;12.768;2023-05-10T09:40:00;4.3;;;1.5;;
49900;SDS011;35789;48.414;12.768;2023-05-10T09:45:01;4.3;;;1.5;;
49900;SDS011;35789;48.414;12.768;2023-05-10T09:50:00;4.3;;;1.5;;
49900;SDS011;35789;48.414;12.768;2023-05-10T09:55:00;4.3;;;1.5;;
49900;SDS011;35789;48.414;12.768;2023-05-10T10:00:00;5.9;;;2.8;;
49900;SDS011;35789;48.414;12.768;2023-05-10T10:05:01;5.9;;;2.8;;
49900;SDS011;35789;48.414;12.768;2023-05-10T10:10:00;5.9;;;2.8;;
49900;SDS011;35789;48.414;12.768;2023-05-10T10:15:00;5.9;;;2.8;;
49900;SDS011;35789;48.414;12.768;2023-05-10T10:20:02;5.9;;;2.8;;
49900;SDS011;35789;48.414;12.768;2023-05-10T10:25:00;5.9;;;2.8;;
49900;SDS011;35789;48.414;12.768;2023-05-10T10:30:06;5.7;;;3.5;;
49900;SDS011;35789;48.414;12.768;2023-05-10T10:35:00;5.7;;;3.5;;
49900;SDS011;35789;48.414;12.768;2023-05-10T10:40:00;5.7;;;3.5;;
49900;SDS011;35789;48.414;12.768;2023-05-10T10:45:11;5.7;;;3.5;;
49900;SDS011;35789;48.414;12.768;2023-05-10T10:50:05;5.7;;;3.5;;
49900;SDS011;35789;48.414;12.768;2023-05-10T10:55:02;5.7;;;3.5;;
49900;SDS011;35789;48.414;12.768;2023-05-10T11:00:17;5.5;;;3.5;;
49900;SDS011;35789;48.414;12.768;2023-05-10T11:10:04;5.5;;;3.5;;
49900;SDS011;35789;48.414;12.768;2023-05-10T11:15:01;5.5;;;3.5;;
49900;SDS011;35789;48.414;12.768;2023-05-10T11:20:08;5.5;;;3.5;;
49900;SDS011;35789;48.414;12.768;2023-05-10T11:25:00;5.5;;;3.5;;
49900;SDS011;35789;48.414;12.768;2023-05-10T11:30:00;10.3;;;3.3;;
49900;SDS011;35789;48.414;12.768;2023-05-10T11:35:06;10.3;;;3.3;;
49900;SDS011;35789;48.414;12.768;2023-05-10T11:40:00;10.3;;;3.3;;
49900;SDS011;35789;48.414;12.768;2023-05-10T11:45:00;10.3;;;3.3;;
49900;SDS011;35789;48.414;12.768;2023-05-10T11:50:00;10.3;;;3.3;;
49900;SDS011;35789;48.414;12.768;2023-05-10T11:55:00;10.3;;;3.3;;
49900;SDS011;35789;48.414;12.768;2023-05-10T12:00:00;5.2;;;2.4;;
49900;SDS011;35789;48.414;12.768;2023-05-10T12:05:00;5.2;;;2.4;;
49900;SDS011;35789;48.414;12.768;2023-05-10T12:10:06;5.2;;;2.4;;
49900;SDS011;35789;48.414;12.768;2023-05-10T12:15:01;5.2;;;2.4;;
49900;SDS011;35789;48.414;12.768;2023-05-10T12:20:14;5.2;;;2.4;;
49900;SDS011;35789;48.414;12.768;2023-05-10T12:25:00;5.2;;;2.4;;
49900;SDS011;35789;48.414;12.768;2023-05-10T12:30:00;5.4;;;2.9;;
49900;SDS011;35789;48.414;12.768;2023-05-10T12:35:00;5.4;;;2.9;;
49900;SDS011;35789;48.414;12.768;2023-05-10T12:40:00;5.4;;;2.9;;
49900;SDS011;35789;48.414;12.768;2023-05-10T12:45:00;5.4;;;2.9;;
49900;SDS011;35789;48.414;12.768;2023-05-10T12:50:01;5.4;;;2.9;;
49900;SDS011;35789;48.414;12.768;2023-05-10T12:55:01;5.4;;;2.9;;
49900;SDS011;35789;48.414;12.768;2023-05-10T13:00:01;12.4;;;6.3;;
49900;SDS011;35789;48.414;12.768;2023-05-10T13:05:00;12.4;;;6.3;;
49900;SDS011;35789;48.414;12.768;2023-05-10T13:10:00;12.4;;;6.3;;
49900;SDS011;35789;48.414;12.768;2023-05-10T13:15:00;12.4;;;6.3;;
49900;SDS011;35789;48.414;12.768;2023-05-10T13:20:00;12.4;;;6.3;;
49900;SDS011;35789;48.414;12.768;2023-05-10T13:25:00;12.4;;;6.3;;
49900;SDS011;35789;48.414;12.768;2023-05-10T13:30:00;7.9;;;4.4;;
49900;SDS011;35789;48.414;12.768;2023-05-10T13:35:00;7.9;;;4.4;;
49900;SDS011;35789;48.414;12.768;2023-05-10T13:40:00;7.9;;;4.4;;
49900;SDS011;35789;48.414;12.768;2023-05-10T13:45:00;7.9;;;4.4;;
49900;SDS011;35789;48.414;12.768;2023-05-10T13:50:00;7.9;;;4.4;;
49900;SDS011;35789;48.414;12.768;2023-05-10T13:55:00;7.9;;;4.4;;
49900;SDS011;35789;48.414;12.768;2023-05-10T14:00:00;7.0;;;3.2;;
49900;SDS011;35789;48.414;12.768;2023-05-10T14:05:00;7.0;;;3.2;;
49900;SDS011;35789;48.414;12.768;2023-05-10T14:10:00;7.0;;;3.2;;
49900;SDS011;35789;48.414;12.768;2023-05-10T14:15:00;7.0;;;3.2;;
49900;SDS011;35789;48.414;12.768;2023-05-10T14:20:00;7.0;;;3.2;;
49900;SDS011;35789;48.414;12.768;2023-05-10T14:25:00;7.0;;;3.2;;
49900;SDS011;35789;48.414;12.768;2023-05-10T14:30:00;9.1;;;2.9;;
49900;SDS011;35789;48.414;12.768;2023-05-10T14:35:00;9.1;;;2.9;;
49900;SDS011;35789;48.414;12.768;2023-05-10T14:40:00;9.1;;;2.9;;
49900;SDS011;35789;48.414;12.768;2023-05-10T14:45:00;9.1;;;2.9;;
49900;SDS011;35789;48.414;12.768;2023-05-10T14:50:00;9.1;;;2.9;;
49900;SDS011;35789;48.414;12.768;2023-05-10T14:55:00;9.1;;;2.9;;
49900;SDS011;35789;48.414;12.768;2023-05-10T15:00:00;6.4;;;2.8;;
49900;SDS011;35789;48.414;12.768;2023-05-10T15:05:00;6.4;;;2.8;;
49900;SDS011;35789;48.414;12.768;2023-05-10T15:10:00;6.4;;;2.8;;
49900;SDS011;35789;48.414;12.768;2023-05-10T15:15:00;6.4;;;2.8;;
49900;SDS011;35789;48.414;12.768;2023-05-10T15:20:00;6.4;;;2.8;;
49900;SDS011;35789;48.414;12.768;2023-05-10T15:25:00;6.4;;;2.8;;
49900;SDS011;35789;48.414;12.768;2023-05-10T15:30:00;9.2;;;5.2;;
49900;SDS011;35789;48.414;12.768;2023-05-10T15:35:00;9.2;;;5.2;;
49900;SDS011;35789;48.414;12.768;2023-05-10T15:40:00;9.2;;;5.2;;
49900;SDS011;35789;48.414;12.768;2023-05-10T15:45:00;9.2;;;5.2;;
49900;SDS011;35789;48.414;12.768;2023-05-10T15:50:00;9.2;;;5.2;;
49900;SDS011;35789;48.414;12.768;2023-05-10T15:55:00;9.2;;;5.2;;
49900;SDS011;35789;48.414;12.768;2023-05-10T16:00:00;6.7;;;3.3;;
49900;SDS011;35789;48.414;12.768;2023-05-10T16:05:00;6.7;;;3.3;;
49900;SDS011;35789;48.414;12.768;2023-05-10T16:10:00;6.7;;;3.3;;
49900;SDS011;35789;48.414;12.768;2023-05-10T16:15:00;6.7;;;3.3;;
49900;SDS011;35789;48.414;12.768;2023-05-10T16:20:00;6.7;;;3.3;;
49900;SDS011;35789;48.414;12.768;2023-05-10T16:25:00;6.7;;;3.3;;
49900;SDS011;35789;48.414;12.768;2023-05-10T16:30:00;3.9;;;1.5;;
49900;SDS011;35789;48.414;12.768;2023-05-10T16:35:00;3.9;;;1.5;;
49900;SDS011;35789;48.414;12.768;2023-05-10T16:40:00;3.9;;;1.5;;
49900;SDS011;35789;48.414;12.768;2023-05-10T16:45:00;3.9;;;1.5;;
49900;SDS011;35789;48.414;12.768;2023-05-10T16:50:00;3.9;;;1.5;;
49900;SDS011;35789;48.414;12.768;2023-05-10T16:55:00;3.9;;;1.5;;
49900;SDS011;35789;48.414;12.768;2023-05-10T17:00:00;4.5;;;2.0;;
49900;SDS011;35789;48.414;12.768;2023-05-10T17:05:00;4.5;;;2.0;;
49900;SDS011;35789;48.414;12.768;2023-05-10T17:10:00;4.5;;;2.0;;
49900;SDS011;35789;48.414;12.768;2023-05-10T17:15:00;4.5;;;2.0;;
49900;SDS011;35789;48.414;12.768;2023-05-10T17:20:00;4.5;;;2.0;;
49900;SDS011;35789;48.414;12.768;2023-05-10T17:25:00;4.5;;;2.0;;
49900;SDS011;35789;48.414;12.768;2023-05-10T17:30:00;3.6;;;1.3;;
49900;SDS011;35789;48.414;12.768;2023-05-10T17:35:01;3.6;;;1.3;;
49900;SDS011;35789;48.414;12.768;2023-05-10T17:40:00;3.6;;;1.3;;
49900;SDS011;35789;48.414;12.768;2023-05-10T17:45:02;3.6;;;1.3;;
49900;SDS011;35789;48.414;12.768;2023-05-10T17:50:00;3.6;;;1.3;;
49900;SDS011;35789;48.414;12.768;2023-05-10T17:55:00;3.6;;;1.3;;
49900;SDS011;35789;48.414;12.768;2023-05-10T18:00:00;5.4;;;2.4;;
49900;SDS011;35789;48.414;12.768;2023-05-10T18:05:00;5.4;;;2.4;;
49900;SDS011;35789;48.414;12.768;2023-05-10T18:10:03;5.4;;;2.4;;
49900;SDS011;35789;48.414;12.768;2023-05-10T18:15:00;5.4;;;2.4;;
49900;SDS011;35789;48.414;12.768;2023-05-10T18:20:00;5.4;;;2.4;;
49900;SDS011;35789;48.414;12.768;2023-05-10T18:25:00;5.9;;;2.3;;
49900;SDS011;35789;48.414;12.768;2023-05-10T18:30:00;5.9;;;2.3;;
49900;SDS011;35789;48.414;12.768;2023-05-10T18:35:00;5.9;;;2.3;;
49900;SDS011;35789;48.414;12.768;2023-05-10T18:40:00;5.9;;;2.3;;
49900;SDS011;35789;48.414;12.768;2023-05-10T18:45:00;5.9;;;2.3;;
49900;SDS011;35789;48.414;12.768;2023-05-10T18:50:01;5.9;;;2.3;;
49900;SDS011;35789;48.414;12.768;2023-05-10T18:55:00;3.9;;;1.8;;
49900;SDS011;35789;48.414;12.768;2023-05-10T19:00:00;3.9;;;1.8;;
49900;SDS011;35789;48.414;12.768;2023-05-10T19:05:00;3.9;;;1.8;;
49900;SDS011;35789;48.414;12.768;2023-05-10T19:10:00;3.9;;;1.8;;
49900;SDS011;35789;48.414;12.768;2023-05-10T19:15:00;3.9;;;1.8;;
49900;SDS011;35789;48.414;12.768;2023-05-10T19:20:00;3.9;;;1.8;;
49900;SDS011;35789;48.414;12.768;2023-05-10T19:25:00;4.8;;;2.3;;
49900;SDS011;35789;48.414;12.768;2023-05-10T19:30:00;4.8;;;2.3;;
49900;SDS011;35789;48.414;12.768;2023-05-10T19:35:00;4.8;;;2.3;;
49900;SDS011;35789;48.414;12.768;2023-05-10T19:40:00;4.8;;;2.3;;
49900;SDS011;35789;48.414;12.768;2023-05-10T19:45:00;4.8;;;2.3;;
49900;SDS011;35789;48.414;12.768;2023-05-10T19:50:00;4.8;;;2.3;;
49900;SDS011;35789;48.414;12.768;2023-05-10T19:55:00;4.8;;;2.6;;
49900;SDS011;35789;48.414;12.768;2023-05-10T20:00:00;4.8;;;2.6;;
49900;SDS011;35789;48.414;12.768;2023-05-10T20:05:00;4.8;;;2.6;;
49900;SDS011;35789;48.414;12.768;2023-05-10T20:10:00;4.8;;;2.6;;
49900;SDS011;35789;48.414;12.768;2023-05-10T20:15:00;4.8;;;2.6;;
49900;SDS011;35789;48.414;12.768;2023-05-10T20:20:00;4.8;;;2.6;;
49900;SDS011;35789;48.414;12.768;2023-05-10T20:25:00;6.1;;;2.8;;
49900;SDS011;35789;48.414;12.768;2023-05-10T20:30:00;6.1;;;2.8;;
49900;SDS011;35789;48.414;12.768;2023-05-10T20:35:00;6.1;;;2.8;;
49900;SDS011;35789;48.414;12.768;2023-05-10T20:40:00;6.1;;;2.8;;
49900;SDS011;35789;48.414;12.768;2023-05-10T20:45:00;6.1;;;2.8;;
49900;SDS011;35789;48.414;12.768;2023-05-10T20:50:00;6.1;;;2.8;;
49900;SDS011;35789;48.414;12.768;2023-05-10T20:55:00;5.5;;;3.0;;
49900;SDS011;35789;48.414;12.768;2023-05-10T21:00:00;5.5;;;3.0;;
49900;SDS011;35789;48.414;12.768;2023-05-10T21:05:00;5.5;;;3.0;;
49900;SDS011;35789;48.414;12.768;2023-05-10T21:10:00;5.5;;;3.0;;
49900;SDS011;35789;48.414;12.768;2023-05-10T21:15:00;5.5;;;3.0;;
49900;SDS011;35789;48.414;12.768;2023-05-10T21:20:00;5.5;;;3.0;;
49900;SDS011;35789;48.414;12.768;2023-05-10T21:25:00;7.0;;;4.2;;
49900;SDS011;35789;48.414;12.768;2023-05-10T21:30:00;7.0;;;4.2;;
49900;SDS011;35789;48.414;12.768;2023-05-10T21:35:00;7.0;;;4.2;;
49900;SDS011;35789;48.414;12.768;2023-05-10T21:40:00;7.0;;;4.2;;
49900;SDS011;35789;48.414;12.768;2023-05-10T21:45:00;7.0;;;4.2;;
49900;SDS011;35789;48.414;12.768;2023-05-10T21:50:00;7.0;;;4.2;;
49900;SDS011;35789;48.414;12.768;2023-05-10T21:55:00;5.0;;;2.5;;
49900;SDS011;35789;48.414;12.768;2023-05-10T22:00:00;5.0;;;2.5;;
49900;SDS011;35789;48.414;12.768;2023-05-10T22:05:00;5.0;;;2.5;;
49900;SDS011;35789;48.414;12.768;2023-05-10T22:10:00;5.0;;;2.5;;
49900;SDS011;35789;48.414;12.768;2023-05-10T22:15:00;5.0;;;2.5;;
49900;SDS011;35789;48.414;12.768;2023-05-10T22:20:00;5.0;;;2.5;;
49900;SDS011;35789;48.414;12.768;2023-05-10T22:25:00;5.4;;;2.1;;
49900;SDS011;35789;48.414;12.768;2023-05-10T22:30:01;5.4;;;2.1;;
49900;SDS011;35789;48.414;12.768;2023-05-10T22:35:00;5.4;;;2.1;;
49900;SDS011;35789;48.414;12.768;2023-05-10T22:40:00;5.4;;;2.1;;
49900;SDS011;35789;48.414;12.768;2023-05-10T22:45:00;5.4;;;2.1;;
49900;SDS011;35789;48.414;12.768;2023-05-10T22:50:00;5.4;;;2.1;;
49900;SDS011;35789;48.414;12.768;2023-05-10T22:55:00;5.3;;;2.8;;
49900;SDS011;35789;48.414;12.768;2023-05-10T23:00:01;5.3;;;2.8;;
49900;SDS011;35789;48.414;12.768;2023-05-10T23:05:00;5.3;;;2.8;;
49900;SDS011;35789;48.414;12.768;2023-05-10T23:10:00;5.3;;;2.8;;
49900;SDS011;35789;48.414;12.768;2023-05-10T23:15:00;5.3;;;2.8;;
49900;SDS011;35789;48.414;12.768;2023-05-10T23:20:00;5.3;;;2.8;;
49900;SDS011;35789;48.414;12.768;2023-05-10T23:25:00;6.0;;;3.3;;
49900;SDS011;35789;48.414;12.768;2023-05-10T23:30:00;6.0;;;3.3;;
49900;SDS011;35789;48.414;12.768;2023-05-10T23:35:00;6.0;;;3.3;;
49900;SDS011;35789;48.414;12.768;2023-05-10T23:40:00;unavailable;;;unavailable;;
49900;SDS011;35789;48.414;12.768;2023-05-10T23:45:00;6.0;;;3.3;;
49900;SDS011;35789;48.414;12.768;2023-05-10T23:50:00;6.0;;;3.3;;
49900;SDS011;35789;48.414;12.768;2023-05-10T23:55:00;7.2;;;3.9;;
